Island Venture — WDG3765 — position and weather

sailwx.info

Track history (hours):
 
Tides and Currents Weather Stations Pressure Air Temp Water Temp Dewpoint Dewpoint Depression Visibility Wind Speed Wind Dir Waves Ship Positions

Island Venture

More information available from US FCC via Universal Licensing System and Coast Guard Vessel Documentation Center.

Last reported at 2014-Jul-28 14:27 UTC. Time now 2014-Jul-29 04:40 UTC.
Position N 47°13' W 123°05'.

Type: Tug. MMSI: 367529420.

Date/timePositionNaut miles runAvg speedWind from/ knotsBaromVisibWave heightAir tempDewpointWater temp
2014-Jul-28 14:27N 47°13' W 123°05'6 3.2
2014-Jul-28 12:32N 47°12' W 122°56'3 2.5
2014-Jul-28 11:23N 47°09' W 122°54'6 4.7
2014-Jul-28 10:04N 47°08' W 122°45'3 5.2
2014-Jul-28 09:32N 47°08' W 122°41'6 5.7
2014-Jul-28 08:26N 47°13' W 122°35'4 4.9
2014-Jul-28 07:34N 47°17' W 122°33'4 4.1
2014-Jul-28 06:33N 47°21' W 122°33'7 7.0
2014-Jul-28 05:34N 47°28' W 122°31'8 8.1
2014-Jul-28 04:34N 47°35' W 122°25'1 8.1
2014-Jul-28 04:29N 47°35' W 122°25'3 2.7
2014-Jul-28 03:33N 47°34' W 122°21'0 0.2
2014-Jul-28 03:19N 47°34' W 122°21'0 0.3
2014-Jul-28 02:33N 47°34' W 122°21'0 4.8
2014-Jul-28 02:29N 47°34' W 122°21'1 0.7
2014-Jul-28 01:33N 47°35' W 122°22'0 3.7
2014-Jul-28 01:29N 47°35' W 122°22'3 2.9
2014-Jul-28 00:34N 47°32' W 122°20'0 0.7
2014-Jul-28 00:29N 47°32' W 122°20'0 0.0
2014-Jul-27 23:34N 47°32' W 122°20'0 0.0
2014-Jul-27 23:33N 47°32' W 122°20'0 0.4
2014-Jul-27 22:33N 47°33' W 122°20'0 0.0
2014-Jul-27 22:33N 47°33' W 122°20'2 1.8
2014-Jul-27 21:33N 47°34' W 122°21'0 0.0
2014-Jul-27 21:33N 47°34' W 122°21'1 0.5
2014-Jul-27 20:30N 47°34' W 122°21'0 0.0
2014-Jul-27 20:27N 47°34' W 122°21'1 0.6
2014-Jul-27 19:33N 47°34' W 122°21'0 0.0
2014-Jul-27 19:33N 47°34' W 122°21'0 0.0
2014-Jul-27 18:33N 47°34' W 122°21'0 0.0
2014-Jul-27 18:33N 47°34' W 122°21'0 0.0
2014-Jul-27 17:33N 47°34' W 122°21'0 0.0
2014-Jul-27 17:32N 47°34' W 122°21'0 0.0
2014-Jul-27 16:34N 47°34' W 122°21'0 0.0
2014-Jul-27 16:32N 47°34' W 122°21'0 0.0
2014-Jul-27 15:34N 47°34' W 122°21'0 0.2
2014-Jul-27 15:32N 47°34' W 122°21'0 0.0
2014-Jul-27 14:34N 47°34' W 122°21'0 0.2
2014-Jul-27 14:32N 47°34' W 122°21'0 0.0
2014-Jul-27 13:33N 47°34' W 122°21'0 0.0
2014-Jul-27 13:32N 47°34' W 122°21'0 0.0
2014-Jul-27 12:33N 47°34' W 122°21'0 0.0
2014-Jul-27 12:31N 47°34' W 122°21'0 0.0
2014-Jul-27 11:34N 47°34' W 122°21'0 0.0
2014-Jul-27 11:31N 47°34' W 122°21'0 0.0
2014-Jul-27 10:33N 47°34' W 122°21'0 1.1
2014-Jul-27 10:31N 47°34' W 122°21'0 0.0
2014-Jul-27 09:33N 47°34' W 122°21'0 0.0
2014-Jul-27 09:31N 47°34' W 122°21'0 0.0
2014-Jul-27 08:34N 47°34' W 122°21'0 0.1
2014-Jul-27 08:30N 47°34' W 122°21'0 0.0
2014-Jul-27 07:33N 47°34' W 122°21'0 0.8
2014-Jul-27 07:30N 47°34' W 122°21'0 0.0
2014-Jul-27 06:33N 47°34' W 122°21'0 0.8
2014-Jul-27 06:30N 47°34' W 122°21'0 0.1
2014-Jul-27 06:00N 47°34' W 122°21'0 0.0
2014-Jul-27 05:33N 47°34' W 122°21'0 0.0
2014-Jul-27 04:33N 47°34' W 122°21'0 0.0
2014-Jul-27 04:30N 47°34' W 122°21'2 2.3
2014-Jul-27 03:34N 47°32' W 122°20'0 0.1
2014-Jul-27 02:57N 47°32' W 122°20'1 3.4
2014-Jul-27 02:33N 47°34' W 122°21'0 4.3
2014-Jul-27 02:33N 47°34' W 122°21'1 0.0
2014-Jul-25 12:30N 47°34' W 122°21'0 0.0
2014-Jul-25 12:30N 47°34' W 122°21'1 0.7
2014-Jul-25 11:31N 47°34' W 122°21'2 2.6
2014-Jul-25 10:50N 47°35' W 122°22'0 0.1
2014-Jul-25 10:33N 47°35' W 122°22'2 2.4
2014-Jul-25 09:33N 47°37' W 122°24'033.9
2014-Jul-25 09:33N 47°37' W 122°25'3 2.8
2014-Jul-25 08:34N 47°40' W 122°24'0 0.0
2014-Jul-25 08:33N 47°40' W 122°24'0 0.5
2014-Jul-25 07:33N 47°40' W 122°24'0 0.0
2014-Jul-25 07:33N 47°40' W 122°24'4 4.4
2014-Jul-25 06:43N 47°37' W 122°27'1 8.9
2014-Jul-25 06:33N 47°36' W 122°27'9 8.8
2014-Jul-25 05:33N 47°27' W 122°31'8 7.9
2014-Jul-25 04:33N 47°19' W 122°30'6 4.1
2014-Jul-25 03:07N 47°16' W 122°23'3 6.0
2014-Jul-25 02:33N 47°18' W 122°27'8 7.6
2014-Jul-25 01:33N 47°25' W 122°23'8 8.2
2014-Jul-25 00:33N 47°33' W 122°25'2 7.6
2014-Jul-25 00:15N 47°36' W 122°24'2 3.3
2014-Jul-24 23:34N 47°34' W 122°21'0 0.0
2014-Jul-24 23:31N 47°34' W 122°21'0 0.0
2014-Jul-24 22:33N 47°34' W 122°21'0 0.0
2014-Jul-24 22:31N 47°34' W 122°21'0 0.0
2014-Jul-24 21:33N 47°34' W 122°21'0 0.0
2014-Jul-24 21:31N 47°34' W 122°21'0 0.0
2014-Jul-24 20:30N 47°34' W 122°21'0 0.0
2014-Jul-24 20:30N 47°34' W 122°21'0 0.0
2014-Jul-24 19:33N 47°34' W 122°21'0 0.1
2014-Jul-24 19:30N 47°34' W 122°21'1 0.7
2014-Jul-24 18:34N 47°35' W 122°22'0 0.9
2014-Jul-24 18:30N 47°35' W 122°22'3 3.5
2014-Jul-24 17:34N 47°33' W 122°26'0 6.5
2014-Jul-24 17:30N 47°33' W 122°26'6 6.8
2014-Jul-24 16:34N 47°27' W 122°24'6 5.6
2014-Jul-24 15:34N 47°21' W 122°23'4 4.0
2014-Jul-24 14:33N 47°17' W 122°25'0 0.1
2014-Jul-24 12:05N 47°17' W 122°25'3 6.1
2014-Jul-24 11:34N 47°20' W 122°25'8 7.8
2014-Jul-24 10:33N 47°28' W 122°23'6 8.7
2014-Jul-24 09:52N 47°34' W 122°25'2 8.1
2014-Jul-24 09:33N 47°36' W 122°23'0 9.2
2014-Jul-24 09:32N 47°36' W 122°23'2 2.0
2014-Jul-24 08:33N 47°34' W 122°21'0 2.9
2014-Jul-24 08:31N 47°34' W 122°21'1 0.6
2014-Jul-24 07:33N 47°34' W 122°21'0 0.0
2014-Jul-24 07:31N 47°34' W 122°21'1 0.5
2014-Jul-24 06:33N 47°34' W 122°21'0 1.5
2014-Jul-24 06:31N 47°34' W 122°21'0 0.0
2014-Jul-24 05:09N 47°34' W 122°21'0 0.0
2014-Jul-24 05:09N 47°34' W 122°21'0 0.0
2014-Jul-24 04:34N 47°34' W 122°21'0 0.0
2014-Jul-24 04:33N 47°34' W 122°21'0 0.0
2014-Jul-24 03:32N 47°34' W 122°21'0 0.1
2014-Jul-24 03:28N 47°34' W 122°21'1 1.1
2014-Jul-24 02:33N 47°34' W 122°21'0 0.0
2014-Jul-24 02:33N 47°34' W 122°21'2 1.9
2014-Jul-24 01:33N 47°35' W 122°22'1 2.0
2014-Jul-24 01:11N 47°36' W 122°22'2 3.2
2014-Jul-24 00:33N 47°37' W 122°25'0 4.5
2014-Jul-24 00:31N 47°37' W 122°25'4 4.6
2014-Jul-23 23:33N 47°41' W 122°28'0 4.6
2014-Jul-23 23:30N 47°41' W 122°28'5 5.0
2014-Jul-23 22:33N 47°46' W 122°27'3 5.1
2014-Jul-23 21:57N 47°49' W 122°28'2 5.3
2014-Jul-23 21:33N 47°51' W 122°29'0 5.8
2014-Jul-23 21:33N 47°51' W 122°29'6 5.8
2014-Jul-23 20:33N 47°56' W 122°33'7 6.8
2014-Jul-23 19:33N 48°01' W 122°39'2 7.1
2014-Jul-23 19:17N 48°03' W 122°40'5 6.5
2014-Jul-23 18:32N 48°08' W 122°42'7 7.1
2014-Jul-23 17:32N 48°12' W 122°51'1 4.8
2014-Jul-23 17:21N 48°12' W 122°52'3 4.2
2014-Jul-23 16:33N 48°15' W 122°54'0 4.3
2014-Jul-23 16:31N 48°15' W 122°55'5 4.8
2014-Jul-23 15:33N 48°19' W 122°59'0 5.3
2014-Jul-23 15:31N 48°19' W 122°59'5 5.7
2014-Jul-23 14:33N 48°24' W 123°03'3 6.6
2014-Jul-23 14:11N 48°26' W 123°05'5 8.0
2014-Jul-23 13:33N 48°30' W 123°10'8 8.0
2014-Jul-23 12:33N 48°38' W 123°13'5 5.2
2014-Jul-23 11:33N 48°43' W 123°12'3 3.2
2014-Jul-23 10:33N 48°46' W 123°12'1 1.4
2014-Jul-23 09:33N 48°47' W 123°13'0 0.0
2014-Jul-23 08:33N 48°47' W 123°13'1 0.6
2014-Jul-23 07:33N 48°47' W 123°14'0 0.2
2014-Jul-23 06:33N 48°48' W 123°14'0 0.2
2014-Jul-23 05:32N 48°48' W 123°14'0 0.2
2014-Jul-23 04:33N 48°47' W 123°14'0 0.3
2014-Jul-23 03:33N 48°47' W 123°14'4 3.8
2014-Jul-23 02:33N 48°45' W 123°09'2 2.4
2014-Jul-23 01:33N 48°42' W 123°11'4 4.1
2014-Jul-23 00:32N 48°39' W 123°13'4 4.2
2014-Jul-22 23:33N 48°35' W 123°12'6 6.0
2014-Jul-22 22:33N 48°29' W 123°08'7 7.0
2014-Jul-22 21:31N 48°24' W 123°01'13 6.7
2014-Jul-22 19:31N 48°13' W 122°50'5 4.7
2014-Jul-22 18:29N 48°10' W 122°44'5 4.8
2014-Jul-22 17:31N 48°06' W 122°39'6 6.6
2014-Jul-22 16:33N 48°00' W 122°36'7 7.0
2014-Jul-22 15:33N 47°55' W 122°29'7 7.1
2014-Jul-22 14:34N 47°48' W 122°26'024.1
2014-Jul-22 14:34N 47°48' W 122°26'7 6.6
2014-Jul-22 13:33N 47°42' W 122°27'0 0.0
2014-Jul-22 13:33N 47°42' W 122°27'6 5.8
2014-Jul-22 12:33N 47°36' W 122°23'0 0.0
2014-Jul-22 12:33N 47°36' W 122°23'2 1.5
2014-Jul-22 11:33N 47°35' W 122°22'0 0.0
2014-Jul-22 11:33N 47°35' W 122°22'0 0.0
2014-Jul-22 10:33N 47°35' W 122°22'0 0.4
2014-Jul-22 10:32N 47°35' W 122°22'1 1.3
2014-Jul-22 09:34N 47°34' W 122°21'0 6.1
2014-Jul-22 09:32N 47°34' W 122°21'0 0.2
2014-Jul-22 08:33N 47°34' W 122°21'0 0.0
2014-Jul-22 08:32N 47°34' W 122°21'0 0.0
2014-Jul-22 07:33N 47°34' W 122°21'0 0.0
2014-Jul-22 07:32N 47°34' W 122°21'0 0.0
2014-Jul-22 06:33N 47°34' W 122°21'1 0.0
2014-Jul-20 04:33N 47°35' W 122°22'0 2.2
2014-Jul-20 04:32N 47°35' W 122°22'0 0.3
2014-Jul-20 03:33N 47°36' W 122°22'0 0.9
2014-Jul-20 03:33N 47°36' W 122°22'5 5.2
2014-Jul-20 02:33N 47°39' W 122°28'0 4.7
2014-Jul-20 02:32N 47°39' W 122°28'6 6.1
2014-Jul-20 01:33N 47°45' W 122°27'0 5.2
2014-Jul-20 01:32N 47°45' W 122°27'6 6.3
2014-Jul-20 00:33N 47°51' W 122°29'0 5.6
2014-Jul-20 00:32N 47°51' W 122°29'5 5.4
2014-Jul-19 23:33N 47°56' W 122°33'5 4.9
2014-Jul-19 22:33N 47°60' W 122°38'10 4.6
2014-Jul-19 20:22N 48°09' W 122°44'5 6.1
2014-Jul-19 19:33N 48°13' W 122°48'7 6.3
2014-Jul-19 18:25N 48°20' W 122°47'5 5.7
2014-Jul-19 17:32N 48°24' W 122°45'5 5.5
2014-Jul-19 16:33N 48°30' W 122°44'5 5.0
2014-Jul-19 15:33N 48°35' W 122°45'5 5.3
2014-Jul-19 14:33N 48°40' W 122°43'5 5.5
2014-Jul-19 13:33N 48°45' W 122°47'7 6.7
2014-Jul-19 12:33N 48°49' W 122°56'7 7.2
2014-Jul-19 11:33N 48°52' W 123°06'7 6.9
2014-Jul-19 10:33N 48°56' W 123°14'7 7.3
2014-Jul-19 09:33N 49°01' W 123°22'7 6.7
2014-Jul-19 08:33N 49°06' W 123°29'6 6.2
2014-Jul-19 07:33N 49°11' W 123°35'6 5.9
2014-Jul-19 06:33N 49°14' W 123°42'6 6.5
2014-Jul-19 05:33N 49°18' W 123°50'7 6.7
2014-Jul-19 04:33N 49°23' W 123°58'6 6.4
2014-Jul-19 03:33N 49°27' W 124°05'6 5.9
2014-Jul-19 02:33N 49°31' W 124°12'5 5.5
2014-Jul-19 01:33N 49°33' W 124°19'6 5.7
2014-Jul-19 00:33N 49°36' W 124°27'5 5.5
2014-Jul-18 23:33N 49°40' W 124°33'2 1.8
2014-Jul-18 22:33N 49°42' W 124°33'0 0.1
2014-Jul-18 21:33N 49°42' W 124°33'0 0.0
2014-Jul-18 20:33N 49°42' W 124°33'0 0.0
2014-Jul-18 18:11N 49°42' W 124°33'2 2.7
2014-Jul-18 17:33N 49°40' W 124°32'5 5.5
2014-Jul-18 16:33N 49°36' W 124°27'7 7.1
2014-Jul-18 15:33N 49°32' W 124°18'7 7.1
2014-Jul-18 14:33N 49°28' W 124°08'  
Track history (hours):
 
Tides and Currents Weather Stations Pressure Air Temp Water Temp Dewpoint Dewpoint Depression Visibility Wind Speed Wind Dir Waves Ship Positions

Island Venture

More information available from US FCC via Universal Licensing System and Coast Guard Vessel Documentation Center.

Last reported at 2014-Jul-28 14:27 UTC. Time now 2014-Jul-29 04:40 UTC.
Position N 47°13' W 123°05'.

Type: Tug. MMSI: 367529420.

Date/timePositionNaut miles runAvg speedWind from/ knotsBaromVisibWave heightAir tempDewpointWater temp
2014-Jul-28 14:27N 47°13' W 123°05'6 3.2
2014-Jul-28 12:32N 47°12' W 122°56'3 2.5
2014-Jul-28 11:23N 47°09' W 122°54'6 4.7
2014-Jul-28 10:04N 47°08' W 122°45'3 5.2
2014-Jul-28 09:32N 47°08' W 122°41'6 5.7
2014-Jul-28 08:26N 47°13' W 122°35'4 4.9
2014-Jul-28 07:34N 47°17' W 122°33'4 4.1
2014-Jul-28 06:33N 47°21' W 122°33'7 7.0
2014-Jul-28 05:34N 47°28' W 122°31'8 8.1
2014-Jul-28 04:34N 47°35' W 122°25'1 8.1
2014-Jul-28 04:29N 47°35' W 122°25'3 2.7
2014-Jul-28 03:33N 47°34' W 122°21'0 0.2
2014-Jul-28 03:19N 47°34' W 122°21'0 0.3
2014-Jul-28 02:33N 47°34' W 122°21'0 4.8
2014-Jul-28 02:29N 47°34' W 122°21'1 0.7
2014-Jul-28 01:33N 47°35' W 122°22'0 3.7
2014-Jul-28 01:29N 47°35' W 122°22'3 2.9
2014-Jul-28 00:34N 47°32' W 122°20'0 0.7
2014-Jul-28 00:29N 47°32' W 122°20'0 0.0
2014-Jul-27 23:34N 47°32' W 122°20'0 0.0
2014-Jul-27 23:33N 47°32' W 122°20'0 0.4
2014-Jul-27 22:33N 47°33' W 122°20'0 0.0
2014-Jul-27 22:33N 47°33' W 122°20'2 1.8
2014-Jul-27 21:33N 47°34' W 122°21'0 0.0
2014-Jul-27 21:33N 47°34' W 122°21'1 0.5
2014-Jul-27 20:30N 47°34' W 122°21'0 0.0
2014-Jul-27 20:27N 47°34' W 122°21'1 0.6
2014-Jul-27 19:33N 47°34' W 122°21'0 0.0
2014-Jul-27 19:33N 47°34' W 122°21'0 0.0
2014-Jul-27 18:33N 47°34' W 122°21'0 0.0
2014-Jul-27 18:33N 47°34' W 122°21'0 0.0
2014-Jul-27 17:33N 47°34' W 122°21'0 0.0
2014-Jul-27 17:32N 47°34' W 122°21'0 0.0
2014-Jul-27 16:34N 47°34' W 122°21'0 0.0
2014-Jul-27 16:32N 47°34' W 122°21'0 0.0
2014-Jul-27 15:34N 47°34' W 122°21'0 0.2
2014-Jul-27 15:32N 47°34' W 122°21'0 0.0
2014-Jul-27 14:34N 47°34' W 122°21'0 0.2
2014-Jul-27 14:32N 47°34' W 122°21'0 0.0
2014-Jul-27 13:33N 47°34' W 122°21'0 0.0
2014-Jul-27 13:32N 47°34' W 122°21'0 0.0
2014-Jul-27 12:33N 47°34' W 122°21'0 0.0
2014-Jul-27 12:31N 47°34' W 122°21'0 0.0
2014-Jul-27 11:34N 47°34' W 122°21'0 0.0
2014-Jul-27 11:31N 47°34' W 122°21'0 0.0
2014-Jul-27 10:33N 47°34' W 122°21'0 1.1
2014-Jul-27 10:31N 47°34' W 122°21'0 0.0
2014-Jul-27 09:33N 47°34' W 122°21'0 0.0
2014-Jul-27 09:31N 47°34' W 122°21'0 0.0
2014-Jul-27 08:34N 47°34' W 122°21'0 0.1
2014-Jul-27 08:30N 47°34' W 122°21'0 0.0
2014-Jul-27 07:33N 47°34' W 122°21'0 0.8
2014-Jul-27 07:30N 47°34' W 122°21'0 0.0
2014-Jul-27 06:33N 47°34' W 122°21'0 0.8
2014-Jul-27 06:30N 47°34' W 122°21'0 0.1
2014-Jul-27 06:00N 47°34' W 122°21'0 0.0
2014-Jul-27 05:33N 47°34' W 122°21'0 0.0
2014-Jul-27 04:33N 47°34' W 122°21'0 0.0
2014-Jul-27 04:30N 47°34' W 122°21'2 2.3
2014-Jul-27 03:34N 47°32' W 122°20'0 0.1
2014-Jul-27 02:57N 47°32' W 122°20'1 3.4
2014-Jul-27 02:33N 47°34' W 122°21'0 4.3
2014-Jul-27 02:33N 47°34' W 122°21'1 0.0
2014-Jul-25 12:30N 47°34' W 122°21'0 0.0
2014-Jul-25 12:30N 47°34' W 122°21'1 0.7
2014-Jul-25 11:31N 47°34' W 122°21'2 2.6
2014-Jul-25 10:50N 47°35' W 122°22'0 0.1
2014-Jul-25 10:33N 47°35' W 122°22'2 2.4
2014-Jul-25 09:33N 47°37' W 122°24'033.9
2014-Jul-25 09:33N 47°37' W 122°25'3 2.8
2014-Jul-25 08:34N 47°40' W 122°24'0 0.0
2014-Jul-25 08:33N 47°40' W 122°24'0 0.5
2014-Jul-25 07:33N 47°40' W 122°24'0 0.0
2014-Jul-25 07:33N 47°40' W 122°24'4 4.4
2014-Jul-25 06:43N 47°37' W 122°27'1 8.9
2014-Jul-25 06:33N 47°36' W 122°27'9 8.8
2014-Jul-25 05:33N 47°27' W 122°31'8 7.9
2014-Jul-25 04:33N 47°19' W 122°30'6 4.1
2014-Jul-25 03:07N 47°16' W 122°23'3 6.0
2014-Jul-25 02:33N 47°18' W 122°27'8 7.6
2014-Jul-25 01:33N 47°25' W 122°23'8 8.2
2014-Jul-25 00:33N 47°33' W 122°25'2 7.6
2014-Jul-25 00:15N 47°36' W 122°24'2 3.3
2014-Jul-24 23:34N 47°34' W 122°21'0 0.0
2014-Jul-24 23:31N 47°34' W 122°21'0 0.0
2014-Jul-24 22:33N 47°34' W 122°21'0 0.0
2014-Jul-24 22:31N 47°34' W 122°21'0 0.0
2014-Jul-24 21:33N 47°34' W 122°21'0 0.0
2014-Jul-24 21:31N 47°34' W 122°21'0 0.0
2014-Jul-24 20:30N 47°34' W 122°21'0 0.0
2014-Jul-24 20:30N 47°34' W 122°21'0 0.0
2014-Jul-24 19:33N 47°34' W 122°21'0 0.1
2014-Jul-24 19:30N 47°34' W 122°21'1 0.7
2014-Jul-24 18:34N 47°35' W 122°22'0 0.9
2014-Jul-24 18:30N 47°35' W 122°22'3 3.5
2014-Jul-24 17:34N 47°33' W 122°26'0 6.5
2014-Jul-24 17:30N 47°33' W 122°26'6 6.8
2014-Jul-24 16:34N 47°27' W 122°24'6 5.6
2014-Jul-24 15:34N 47°21' W 122°23'4 4.0
2014-Jul-24 14:33N 47°17' W 122°25'0 0.1
2014-Jul-24 12:05N 47°17' W 122°25'3 6.1
2014-Jul-24 11:34N 47°20' W 122°25'8 7.8
2014-Jul-24 10:33N 47°28' W 122°23'6 8.7
2014-Jul-24 09:52N 47°34' W 122°25'2 8.1
2014-Jul-24 09:33N 47°36' W 122°23'0 9.2
2014-Jul-24 09:32N 47°36' W 122°23'2 2.0
2014-Jul-24 08:33N 47°34' W 122°21'0 2.9
2014-Jul-24 08:31N 47°34' W 122°21'1 0.6
2014-Jul-24 07:33N 47°34' W 122°21'0 0.0
2014-Jul-24 07:31N 47°34' W 122°21'1 0.5
2014-Jul-24 06:33N 47°34' W 122°21'0 1.5
2014-Jul-24 06:31N 47°34' W 122°21'0 0.0
2014-Jul-24 05:09N 47°34' W 122°21'0 0.0
2014-Jul-24 05:09N 47°34' W 122°21'0 0.0
2014-Jul-24 04:34N 47°34' W 122°21'0 0.0
2014-Jul-24 04:33N 47°34' W 122°21'0 0.0
2014-Jul-24 03:32N 47°34' W 122°21'0 0.1
2014-Jul-24 03:28N 47°34' W 122°21'1 1.1
2014-Jul-24 02:33N 47°34' W 122°21'0 0.0
2014-Jul-24 02:33N 47°34' W 122°21'2 1.9
2014-Jul-24 01:33N 47°35' W 122°22'1 2.0
2014-Jul-24 01:11N 47°36' W 122°22'2 3.2
2014-Jul-24 00:33N 47°37' W 122°25'0 4.5
2014-Jul-24 00:31N 47°37' W 122°25'4 4.6
2014-Jul-23 23:33N 47°41' W 122°28'0 4.6
2014-Jul-23 23:30N 47°41' W 122°28'5 5.0
2014-Jul-23 22:33N 47°46' W 122°27'3 5.1
2014-Jul-23 21:57N 47°49' W 122°28'2 5.3
2014-Jul-23 21:33N 47°51' W 122°29'0 5.8
2014-Jul-23 21:33N 47°51' W 122°29'6 5.8
2014-Jul-23 20:33N 47°56' W 122°33'7 6.8
2014-Jul-23 19:33N 48°01' W 122°39'2 7.1
2014-Jul-23 19:17N 48°03' W 122°40'5 6.5
2014-Jul-23 18:32N 48°08' W 122°42'7 7.1
2014-Jul-23 17:32N 48°12' W 122°51'1 4.8
2014-Jul-23 17:21N 48°12' W 122°52'3 4.2
2014-Jul-23 16:33N 48°15' W 122°54'0 4.3
2014-Jul-23 16:31N 48°15' W 122°55'5 4.8
2014-Jul-23 15:33N 48°19' W 122°59'0 5.3
2014-Jul-23 15:31N 48°19' W 122°59'5 5.7
2014-Jul-23 14:33N 48°24' W 123°03'3 6.6
2014-Jul-23 14:11N 48°26' W 123°05'5 8.0
2014-Jul-23 13:33N 48°30' W 123°10'8 8.0
2014-Jul-23 12:33N 48°38' W 123°13'5 5.2
2014-Jul-23 11:33N 48°43' W 123°12'3 3.2
2014-Jul-23 10:33N 48°46' W 123°12'1 1.4
2014-Jul-23 09:33N 48°47' W 123°13'0 0.0
2014-Jul-23 08:33N 48°47' W 123°13'1 0.6
2014-Jul-23 07:33N 48°47' W 123°14'0 0.2
2014-Jul-23 06:33N 48°48' W 123°14'0 0.2
2014-Jul-23 05:32N 48°48' W 123°14'0 0.2
2014-Jul-23 04:33N 48°47' W 123°14'0 0.3
2014-Jul-23 03:33N 48°47' W 123°14'4 3.8
2014-Jul-23 02:33N 48°45' W 123°09'2 2.4
2014-Jul-23 01:33N 48°42' W 123°11'4 4.1
2014-Jul-23 00:32N 48°39' W 123°13'4 4.2
2014-Jul-22 23:33N 48°35' W 123°12'6 6.0
2014-Jul-22 22:33N 48°29' W 123°08'7 7.0
2014-Jul-22 21:31N 48°24' W 123°01'13 6.7
2014-Jul-22 19:31N 48°13' W 122°50'5 4.7
2014-Jul-22 18:29N 48°10' W 122°44'5 4.8
2014-Jul-22 17:31N 48°06' W 122°39'6 6.6
2014-Jul-22 16:33N 48°00' W 122°36'7 7.0
2014-Jul-22 15:33N 47°55' W 122°29'7 7.1
2014-Jul-22 14:34N 47°48' W 122°26'024.1
2014-Jul-22 14:34N 47°48' W 122°26'7 6.6
2014-Jul-22 13:33N 47°42' W 122°27'0 0.0
2014-Jul-22 13:33N 47°42' W 122°27'6 5.8
2014-Jul-22 12:33N 47°36' W 122°23'0 0.0
2014-Jul-22 12:33N 47°36' W 122°23'2 1.5
2014-Jul-22 11:33N 47°35' W 122°22'0 0.0
2014-Jul-22 11:33N 47°35' W 122°22'0 0.0
2014-Jul-22 10:33N 47°35' W 122°22'0 0.4
2014-Jul-22 10:32N 47°35' W 122°22'1 1.3
2014-Jul-22 09:34N 47°34' W 122°21'0 6.1
2014-Jul-22 09:32N 47°34' W 122°21'0 0.2
2014-Jul-22 08:33N 47°34' W 122°21'0 0.0
2014-Jul-22 08:32N 47°34' W 122°21'0 0.0
2014-Jul-22 07:33N 47°34' W 122°21'0 0.0
2014-Jul-22 07:32N 47°34' W 122°21'0 0.0
2014-Jul-22 06:33N 47°34' W 122°21'1 0.0
2014-Jul-20 04:33N 47°35' W 122°22'0 2.2
2014-Jul-20 04:32N 47°35' W 122°22'0 0.3
2014-Jul-20 03:33N 47°36' W 122°22'0 0.9
2014-Jul-20 03:33N 47°36' W 122°22'5 5.2
2014-Jul-20 02:33N 47°39' W 122°28'0 4.7
2014-Jul-20 02:32N 47°39' W 122°28'6 6.1
2014-Jul-20 01:33N 47°45' W 122°27'0 5.2
2014-Jul-20 01:32N 47°45' W 122°27'6 6.3
2014-Jul-20 00:33N 47°51' W 122°29'0 5.6
2014-Jul-20 00:32N 47°51' W 122°29'5 5.4
2014-Jul-19 23:33N 47°56' W 122°33'5 4.9
2014-Jul-19 22:33N 47°60' W 122°38'10 4.6
2014-Jul-19 20:22N 48°09' W 122°44'5 6.1
2014-Jul-19 19:33N 48°13' W 122°48'7 6.3
2014-Jul-19 18:25N 48°20' W 122°47'5 5.7
2014-Jul-19 17:32N 48°24' W 122°45'5 5.5
2014-Jul-19 16:33N 48°30' W 122°44'5 5.0
2014-Jul-19 15:33N 48°35' W 122°45'5 5.3
2014-Jul-19 14:33N 48°40' W 122°43'5 5.5
2014-Jul-19 13:33N 48°45' W 122°47'7 6.7
2014-Jul-19 12:33N 48°49' W 122°56'7 7.2
2014-Jul-19 11:33N 48°52' W 123°06'7 6.9
2014-Jul-19 10:33N 48°56' W 123°14'7 7.3
2014-Jul-19 09:33N 49°01' W 123°22'7 6.7
2014-Jul-19 08:33N 49°06' W 123°29'6 6.2
2014-Jul-19 07:33N 49°11' W 123°35'6 5.9
2014-Jul-19 06:33N 49°14' W 123°42'6 6.5
2014-Jul-19 05:33N 49°18' W 123°50'7 6.7
2014-Jul-19 04:33N 49°23' W 123°58'6 6.4
2014-Jul-19 03:33N 49°27' W 124°05'6 5.9
2014-Jul-19 02:33N 49°31' W 124°12'5 5.5
2014-Jul-19 01:33N 49°33' W 124°19'6 5.7
2014-Jul-19 00:33N 49°36' W 124°27'5 5.5
2014-Jul-18 23:33N 49°40' W 124°33'2 1.8
2014-Jul-18 22:33N 49°42' W 124°33'0 0.1
2014-Jul-18 21:33N 49°42' W 124°33'0 0.0
2014-Jul-18 20:33N 49°42' W 124°33'0 0.0
2014-Jul-18 18:11N 49°42' W 124°33'2 2.7
2014-Jul-18 17:33N 49°40' W 124°32'5 5.5
2014-Jul-18 16:33N 49°36' W 124°27'7 7.1
2014-Jul-18 15:33N 49°32' W 124°18'7 7.1
2014-Jul-18 14:33N 49°28' W 124°08'  

Dump ship's entire track history